Time;durP1;ratioP1;P1;durP2;ratioP2;P2;SDS_P1;SDS_P2;PMS_P1;PMS_P2;Temp;Humidity;BMP_temperature;BMP_pressure;BME280_temperature;BME280_humidity;BME280_pressure;Samples;Min_cycle;Max_cycle;Signal;HPM_P1;HPM_P2
2021/06/15 00:01:07;;;;;;;2.22;1.83;;;;;;;;;;5009471;28;20029;-61
2021/06/15 00:03:32;;;;;;;2.30;1.70;;;;;;;;;;5015245;28;20057;-61
2021/06/15 00:05:57;;;;;;;2.92;1.83;;;;;;;;;;5008700;28;20065;-61
2021/06/15 00:08:23;;;;;;;2.92;1.98;;;;;;;;;;5008318;28;20026;-61
2021/06/15 00:10:48;;;;;;;3.00;1.80;;;;;;;;;;5008167;28;20030;-62
2021/06/15 00:13:13;;;;;;;2.58;1.88;;;;;;;;;;5016822;28;20052;-61
2021/06/15 00:15:40;;;;;;;3.33;2.00;;;;;;;;;;5028513;28;20038;-62
2021/06/15 00:18:06;;;;;;;3.28;2.17;;;;;;;;;;5027323;28;20785;-61
2021/06/15 00:20:31;;;;;;;2.35;1.88;;;;;;;;;;5025792;28;20079;-61
2021/06/15 00:22:56;;;;;;;2.35;1.80;;;;;;;;;;5014349;28;20038;-62
2021/06/15 00:25:22;;;;;;;2.47;1.77;;;;;;;;;;5022732;28;20032;-62
2021/06/15 00:27:47;;;;;;;2.80;2.05;;;;;;;;;;5007607;28;20025;-61
2021/06/15 00:30:15;;;;;;;2.88;1.98;;;;;;;;;;5013787;28;20083;-62
2021/06/15 00:32:40;;;;;;;2.78;1.98;;;;;;;;;;5026860;28;20025;-62
2021/06/15 00:35:06;;;;;;;3.03;2.10;;;;;;;;;;5027634;28;20032;-61
2021/06/15 00:37:31;;;;;;;2.75;2.05;;;;;;;;;;5027682;28;20044;-61
2021/06/15 00:39:56;;;;;;;3.15;2.10;;;;;;;;;;5028048;28;20083;-62
2021/06/15 00:42:23;;;;;;;2.92;1.98;;;;;;;;;;5028215;28;20068;-62
2021/06/15 00:44:49;;;;;;;2.63;1.80;;;;;;;;;;5028589;28;20163;-62
2021/06/15 00:47:14;;;;;;;2.55;1.85;;;;;;;;;;5010668;28;20105;-62
2021/06/15 00:49:39;;;;;;;3.17;1.90;;;;;;;;;;4994606;28;20041;-61
2021/06/15 00:52:05;;;;;;;2.63;1.80;;;;;;;;;;5026808;28;20025;-62
2021/06/15 00:54:30;;;;;;;3.22;2.08;;;;;;;;;;5031763;28;20033;-61
2021/06/15 00:56:56;;;;;;;3.25;2.20;;;;;;;;;;5030608;28;20108;-61
2021/06/15 00:59:21;;;;;;;2.33;1.90;;;;;;;;;;5031584;28;20386;-61
2021/06/15 01:01:47;;;;;;;2.97;1.95;;;;;;;;;;5031798;28;20107;-61
2021/06/15 01:04:12;;;;;;;2.15;1.73;;;;;;;;;;5031692;28;20385;-61
2021/06/15 01:06:53;;;;;;;2.85;1.98;;;;;;;;;;5029834;28;20052;-61
2021/06/15 01:10:02;;;;;;;2.22;1.83;;;;;;;;;;5029725;28;20148;-61
2021/06/15 01:12:49;;;;;;;2.80;2.03;;;;;;;;;;4989178;28;20113;-62
2021/06/15 01:15:16;;;;;;;2.67;1.88;;;;;;;;;;5029233;28;20029;-62
2021/06/15 01:17:52;;;;;;;2.63;2.08;;;;;;;;;;5022337;28;20361;-61
2021/06/15 01:20:23;;;;;;;3.70;2.40;;;;;;;;;;5029342;28;20381;-61
2021/06/15 01:23:26;;;;;;;2.70;1.77;;;;;;;;;;5030317;28;20448;-62
2021/06/15 01:26:15;;;;;;;3.80;2.15;;;;;;;;;;5031246;28;20028;-61
2021/06/15 01:28:40;;;;;;;3.42;1.77;;;;;;;;;;5019753;28;20037;-62
2021/06/15 01:31:18;;;;;;;2.20;1.80;;;;;;;;;;5027708;28;20028;-62
2021/06/15 01:33:53;;;;;;;2.50;2.00;;;;;;;;;;5031073;28;20025;-61
2021/06/15 01:36:18;;;;;;;2.72;2.00;;;;;;;;;;5014499;28;20037;-61
2021/06/15 01:38:55;;;;;;;2.70;2.00;;;;;;;;;;5022579;28;20036;-62
2021/06/15 01:41:33;;;;;;;2.47;1.70;;;;;;;;;;5030607;28;20040;-61
2021/06/15 01:44:01;;;;;;;3.33;2.10;;;;;;;;;;5051188;28;20465;-62
2021/06/15 01:46:27;;;;;;;2.50;1.98;;;;;;;;;;5027198;28;20499;-61
2021/06/15 01:48:59;;;;;;;3.05;2.20;;;;;;;;;;4994761;28;20026;-61
2021/06/15 01:51:25;;;;;;;2.38;1.70;;;;;;;;;;5019034;28;20113;-62
2021/06/15 01:54:20;;;;;;;2.00;1.60;;;;;;;;;;5030674;28;20121;-62
2021/06/15 01:56:45;;;;;;;3.28;2.25;;;;;;;;;;5029258;28;20073;-62
2021/06/15 01:59:12;;;;;;;2.78;1.98;;;;;;;;;;5028698;28;20126;-62
2021/06/15 02:01:40;;;;;;;1.85;1.55;;;;;;;;;;5012859;28;20033;-61
2021/06/15 02:04:05;;;;;;;2.28;1.95;;;;;;;;;;5016692;28;20056;-62
2021/06/15 02:06:31;;;;;;;3.08;1.92;;;;;;;;;;5028679;28;20579;-62
2021/06/15 02:08:56;;;;;;;2.33;1.85;;;;;;;;;;5029159;28;20108;-61
2021/06/15 02:11:23;;;;;;;3.10;1.83;;;;;;;;;;5012702;28;20544;-61
2021/06/15 02:13:48;;;;;;;2.58;1.90;;;;;;;;;;5029974;28;20034;-61
2021/06/15 02:16:14;;;;;;;3.38;2.03;;;;;;;;;;5030391;28;20482;-62
2021/06/15 02:18:40;;;;;;;4.50;2.33;;;;;;;;;;5028469;28;20080;-62
2021/06/15 02:21:07;;;;;;;2.78;1.95;;;;;;;;;;5030638;28;20021;-61
2021/06/15 02:23:33;;;;;;;3.42;2.10;;;;;;;;;;5029486;28;20029;-62
2021/06/15 02:26:00;;;;;;;2.92;2.00;;;;;;;;;;5028957;28;20458;-62
2021/06/15 02:28:25;;;;;;;2.90;2.00;;;;;;;;;;5028092;28;20032;-62
2021/06/15 02:30:51;;;;;;;2.80;1.90;;;;;;;;;;5022056;28;20096;-61
2021/06/15 02:33:24;;;;;;;2.80;1.88;;;;;;;;;;5009496;28;20045;-62
2021/06/15 02:35:56;;;;;;;3.03;2.03;;;;;;;;;;5013838;28;20057;-62
2021/06/15 02:38:28;;;;;;;2.28;1.77;;;;;;;;;;5027691;28;20033;-62
2021/06/15 02:40:54;;;;;;;3.00;2.20;;;;;;;;;;5012894;28;20047;-61
2021/06/15 02:43:23;;;;;;;2.38;1.77;;;;;;;;;;5012047;28;20026;-62
2021/06/15 02:45:48;;;;;;;2.50;1.90;;;;;;;;;;5008962;28;20026;-62
2021/06/15 02:48:13;;;;;;;3.03;2.00;;;;;;;;;;5026208;28;20028;-61
2021/06/15 02:50:39;;;;;;;3.30;1.80;;;;;;;;;;5026302;28;20018;-61
2021/06/15 02:53:11;;;;;;;2.17;1.75;;;;;;;;;;5016990;28;20089;-62
2021/06/15 02:55:39;;;;;;;2.35;1.95;;;;;;;;;;5028353;28;20079;-62
2021/06/15 02:58:04;;;;;;;2.40;1.83;;;;;;;;;;5026950;28;20104;-61
2021/06/15 03:00:30;;;;;;;4.15;2.40;;;;;;;;;;5029273;28;20108;-61
2021/06/15 03:02:56;;;;;;;2.45;1.92;;;;;;;;;;5029481;28;20025;-61
2021/06/15 03:05:21;;;;;;;2.90;1.90;;;;;;;;;;5029426;28;20087;-61
2021/06/15 03:07:46;;;;;;;2.55;1.58;;;;;;;;;;5028844;28;20033;-62
2021/06/15 03:10:12;;;;;;;1.77;1.58;;;;;;;;;;5010521;28;20040;-61
2021/06/15 03:13:02;;;;;;;2.80;1.80;;;;;;;;;;5032027;28;20079;-61
2021/06/15 03:15:47;;;;;;;2.10;1.90;;;;;;;;;;5025919;28;20065;-61
2021/06/15 03:18:40;;;;;;;2.80;1.92;;;;;;;;;;5007215;28;20544;-61
2021/06/15 03:21:08;;;;;;;3.38;1.90;;;;;;;;;;5025527;28;20041;-62
2021/06/15 03:23:33;;;;;;;3.15;1.73;;;;;;;;;;5027065;28;20059;-62
2021/06/15 03:25:58;;;;;;;2.80;1.77;;;;;;;;;;5028861;28;20025;-61
2021/06/15 03:28:27;;;;;;;3.13;1.90;;;;;;;;;;5027116;28;20026;-61
2021/06/15 03:30:53;;;;;;;2.35;1.90;;;;;;;;;;5023820;28;20099;-61
2021/06/15 03:33:18;;;;;;;2.45;1.92;;;;;;;;;;5010981;28;20072;-61
2021/06/15 03:35:57;;;;;;;2.35;1.75;;;;;;;;;;5011395;28;20086;-61
2021/06/15 03:38:30;;;;;;;2.58;1.85;;;;;;;;;;5028466;28;20044;-61
2021/06/15 03:40:58;;;;;;;3.55;2.00;;;;;;;;;;5027514;28;20060;-61
2021/06/15 03:43:25;;;;;;;2.13;1.70;;;;;;;;;;5010967;28;20394;-61
2021/06/15 03:46:03;;;;;;;2.47;1.83;;;;;;;;;;5010989;28;20033;-62
2021/06/15 03:48:29;;;;;;;2.08;1.70;;;;;;;;;;5010809;28;20025;-61
2021/06/15 03:50:56;;;;;;;2.67;2.15;;;;;;;;;;5020587;28;20022;-61
2021/06/15 03:53:22;;;;;;;2.42;1.90;;;;;;;;;;5026136;28;20490;-62
2021/06/15 03:55:47;;;;;;;3.10;1.80;;;;;;;;;;5028840;28;20030;-61
2021/06/15 03:58:13;;;;;;;2.95;1.92;;;;;;;;;;5027763;28;20584;-61
2021/06/15 04:00:38;;;;;;;3.20;2.00;;;;;;;;;;4994068;28;20501;-60
2021/06/15 04:03:06;;;;;;;2.55;2.05;;;;;;;;;;5027060;28;20039;-61
2021/06/15 04:05:31;;;;;;;3.17;1.92;;;;;;;;;;5028129;28;20478;-62
2021/06/15 04:07:59;;;;;;;2.83;1.92;;;;;;;;;;5027691;28;20026;-61
2021/06/15 04:10:25;;;;;;;2.60;1.70;;;;;;;;;;5010924;28;20028;-61
2021/06/15 04:12:50;;;;;;;2.40;1.75;;;;;;;;;;5027043;28;20076;-62
2021/06/15 04:15:16;;;;;;;3.25;2.58;;;;;;;;;;5024752;28;20482;-61
2021/06/15 04:17:45;;;;;;;2.55;1.80;;;;;;;;;;5006606;28;20438;-62
2021/06/15 04:20:11;;;;;;;2.67;1.92;;;;;;;;;;5006942;28;20040;-61
2021/06/15 04:22:39;;;;;;;2.10;1.75;;;;;;;;;;5009738;28;20437;-62
2021/06/15 04:25:05;;;;;;;2.67;1.98;;;;;;;;;;5026660;28;20025;-61
2021/06/15 04:27:31;;;;;;;2.42;1.98;;;;;;;;;;5009558;28;20508;-61
2021/06/15 04:29:57;;;;;;;2.47;1.90;;;;;;;;;;5010391;28;20033;-61
2021/06/15 04:32:34;;;;;;;2.25;2.00;;;;;;;;;;5024226;28;20057;-62
2021/06/15 04:35:02;;;;;;;2.70;2.00;;;;;;;;;;5026906;28;20381;-61
2021/06/15 04:37:28;;;;;;;3.15;2.00;;;;;;;;;;5025658;28;20444;-61
2021/06/15 04:39:56;;;;;;;2.80;1.95;;;;;;;;;;5010327;28;20088;-61
2021/06/15 04:42:34;;;;;;;2.53;1.90;;;;;;;;;;5008212;28;20080;-61
2021/06/15 04:45:00;;;;;;;2.42;2.10;;;;;;;;;;4996647;28;20937;-62
2021/06/15 04:47:27;;;;;;;2.65;2.10;;;;;;;;;;4997688;28;20073;-61
2021/06/15 04:50:04;;;;;;;2.42;1.85;;;;;;;;;;4997206;28;20121;-61
2021/06/15 04:52:30;;;;;;;2.67;2.00;;;;;;;;;;5009813;28;20026;-60
2021/06/15 04:54:56;;;;;;;2.58;1.90;;;;;;;;;;5014925;28;20038;-61
2021/06/15 04:57:27;;;;;;;2.55;2.00;;;;;;;;;;5018860;28;20101;-61
2021/06/15 04:59:53;;;;;;;;;;;;;;;;;;5023737;28;20555;-61
2021/06/15 05:02:20;;;;;;;2.47;2.00;;;;;;;;;;5009420;28;19980;-62
2021/06/15 05:04:45;;;;;;;2.53;2.17;;;;;;;;;;5006588;28;20030;-61
2021/06/15 05:07:10;;;;;;;2.35;2.03;;;;;;;;;;5006277;28;20037;-61
2021/06/15 05:09:36;;;;;;;2.83;1.77;;;;;;;;;;5019727;28;20031;-61
2021/06/15 05:12:01;;;;;;;2.97;2.15;;;;;;;;;;5041202;28;20073;-62
2021/06/15 05:14:27;;;;;;;2.55;2.10;;;;;;;;;;5009851;28;20029;-61
2021/06/15 05:16:53;;;;;;;3.00;1.88;;;;;;;;;;5013674;28;20017;-61
2021/06/15 05:19:18;;;;;;;2.53;1.92;;;;;;;;;;5007851;28;20042;-61
2021/06/15 05:22:02;;;;;;;2.42;1.83;;;;;;;;;;4990875;28;20045;-62
2021/06/15 05:24:50;;;;;;;2.60;2.05;;;;;;;;;;5009400;28;20116;-61
2021/06/15 05:27:17;;;;;;;2.72;2.20;;;;;;;;;;5005843;28;20101;-61
2021/06/15 05:29:42;;;;;;;2.35;1.98;;;;;;;;;;5008967;28;20040;-62
2021/06/15 05:32:08;;;;;;;2.53;2.03;;;;;;;;;;5018372;28;20037;-61
2021/06/15 05:34:34;;;;;;;2.78;2.25;;;;;;;;;;5028641;28;20112;-61
2021/06/15 05:36:59;;;;;;;2.72;1.88;;;;;;;;;;5030616;28;20501;-61
2021/06/15 05:39:25;;;;;;;2.75;2.13;;;;;;;;;;5029600;28;20601;-61
2021/06/15 05:41:50;;;;;;;3.13;2.00;;;;;;;;;;5030518;28;20021;-61
2021/06/15 05:44:16;;;;;;;3.08;2.20;;;;;;;;;;5030125;28;20390;-61
2021/06/15 05:46:41;;;;;;;2.80;2.20;;;;;;;;;;5029689;28;20369;-62
2021/06/15 05:49:06;;;;;;;2.72;2.13;;;;;;;;;;5022501;28;20115;-61
2021/06/15 05:51:32;;;;;;;3.53;2.10;;;;;;;;;;5028545;28;20036;-61
2021/06/15 05:54:02;;;;;;;2.25;1.80;;;;;;;;;;5023786;28;20034;-61
2021/06/15 05:56:27;;;;;;;3.38;2.20;;;;;;;;;;5010295;28;20061;-61
2021/06/15 05:58:53;;;;;;;2.35;2.03;;;;;;;;;;5009340;28;20061;-61
2021/06/15 06:01:18;;;;;;;2.97;2.20;;;;;;;;;;5025069;28;20037;-61
2021/06/15 06:03:48;;;;;;;2.90;2.08;;;;;;;;;;5030293;28;20453;-60
2021/06/15 06:08:57;;;;;;;3.40;2.20;;;;;;;;;;5029253;28;20087;-61
2021/06/15 06:11:23;;;;;;;2.70;2.28;;;;;;;;;;5030180;28;20466;-61
2021/06/15 06:13:52;;;;;;;3.92;2.70;;;;;;;;;;5030365;28;20502;-61
2021/06/15 06:16:18;;;;;;;4.53;2.20;;;;;;;;;;5019686;28;20044;-61
2021/06/15 06:18:44;;;;;;;2.85;2.30;;;;;;;;;;5008450;28;20069;-61
2021/06/15 06:21:11;;;;;;;3.88;2.53;;;;;;;;;;4999698;28;20057;-62
2021/06/15 06:23:36;;;;;;;3.15;2.40;;;;;;;;;;5029425;28;20037;-61
2021/06/15 06:26:02;;;;;;;3.67;2.20;;;;;;;;;;5029954;28;20025;-61
2021/06/15 06:28:27;;;;;;;3.22;2.25;;;;;;;;;;5028684;28;20029;-61
2021/06/15 06:30:52;;;;;;;3.50;2.40;;;;;;;;;;5023324;28;20386;-61
2021/06/15 06:33:18;;;;;;;3.05;2.15;;;;;;;;;;5010103;28;20029;-61
2021/06/15 06:35:43;;;;;;;2.92;2.20;;;;;;;;;;5009866;28;20026;-60
2021/06/15 06:38:08;;;;;;;2.78;2.13;;;;;;;;;;5020305;28;20056;-61
2021/06/15 06:40:34;;;;;;;3.03;2.15;;;;;;;;;;5030133;28;20052;-60
2021/06/15 06:42:59;;;;;;;2.00;1.80;;;;;;;;;;5029824;28;20546;-61
2021/06/15 06:45:25;;;;;;;3.55;1.83;;;;;;;;;;5025524;28;20030;-61
2021/06/15 06:47:51;;;;;;;7.35;3.80;;;;;;;;;;5012391;28;20398;-60
2021/06/15 06:50:16;;;;;;;6.88;4.45;;;;;;;;;;5013769;28;20025;-59
2021/06/15 06:52:42;;;;;;;6.93;4.47;;;;;;;;;;5029496;28;20040;-59
2021/06/15 06:55:08;;;;;;;5.95;4.53;;;;;;;;;;5029186;28;20036;-58
2021/06/15 06:57:33;;;;;;;8.00;4.90;;;;;;;;;;5013939;28;20094;-56
2021/06/15 06:59:58;;;;;;;8.82;5.00;;;;;;;;;;5019179;28;20036;-60
2021/06/15 07:02:24;;;;;;;15.20;5.20;;;;;;;;;;5028982;28;20478;-60
2021/06/15 07:04:49;;;;;;;11.05;5.47;;;;;;;;;;5029403;28;20485;-61
2021/06/15 07:07:14;;;;;;;14.85;5.40;;;;;;;;;;5029049;28;20045;-61
2021/06/15 07:09:40;;;;;;;12.05;5.40;;;;;;;;;;5028261;28;20382;-60
2021/06/15 07:12:05;;;;;;;9.40;4.93;;;;;;;;;;5029006;28;20051;-61
2021/06/15 07:14:31;;;;;;;8.10;5.20;;;;;;;;;;5030288;28;20478;-60
2021/06/15 07:16:56;;;;;;;6.82;4.88;;;;;;;;;;5030012;28;20071;-59
2021/06/15 07:19:21;;;;;;;7.72;4.68;;;;;;;;;;5013009;28;20425;-58
2021/06/15 07:21:47;;;;;;;8.55;4.60;;;;;;;;;;5022267;28;20108;-59
2021/06/15 07:24:12;;;;;;;7.78;4.93;;;;;;;;;;5029753;28;20116;-61
2021/06/15 07:26:37;;;;;;;9.10;4.70;;;;;;;;;;5028549;28;20069;-58
2021/06/15 07:29:03;;;;;;;8.18;4.20;;;;;;;;;;5030342;28;20056;-59
2021/06/15 07:31:29;;;;;;;8.75;4.25;;;;;;;;;;5029721;28;20037;-59
2021/06/15 07:33:54;;;;;;;7.03;4.28;;;;;;;;;;5028374;28;20026;-57
2021/06/15 07:36:20;;;;;;;8.65;5.07;;;;;;;;;;5029525;28;20029;-59
2021/06/15 07:38:45;;;;;;;5.85;4.47;;;;;;;;;;5029260;28;20445;-57
2021/06/15 07:41:10;;;;;;;6.18;4.25;;;;;;;;;;5029480;28;20032;-57
2021/06/15 07:43:37;;;;;;;7.95;4.45;;;;;;;;;;5028574;28;20116;-59
2021/06/15 07:46:03;;;;;;;6.32;4.28;;;;;;;;;;5021745;28;20526;-59
2021/06/15 07:48:28;;;;;;;7.30;4.15;;;;;;;;;;5018590;28;20044;-60
2021/06/15 07:50:54;;;;;;;5.22;4.00;;;;;;;;;;5020625;28;20522;-58
2021/06/15 07:53:19;;;;;;;6.40;4.13;;;;;;;;;;5020798;28;20509;-60
2021/06/15 07:55:44;;;;;;;5.95;3.80;;;;;;;;;;5019691;28;20028;-59
2021/06/15 07:58:12;;;;;;;6.00;4.55;;;;;;;;;;5017866;28;20025;-60
2021/06/15 08:00:39;;;;;;;6.25;3.78;;;;;;;;;;5021977;28;20025;-57
2021/06/15 08:03:04;;;;;;;6.38;4.05;;;;;;;;;;5022583;28;20091;-61
2021/06/15 08:05:29;;;;;;;10.55;4.30;;;;;;;;;;5028122;28;20474;-59
2021/06/15 08:07:55;;;;;;;7.40;4.18;;;;;;;;;;5026401;28;20426;-61
2021/06/15 08:10:20;;;;;;;7.45;4.65;;;;;;;;;;5018162;28;20030;-61
2021/06/15 08:12:49;;;;;;;6.85;3.83;;;;;;;;;;5024037;28;20029;-60
2021/06/15 08:15:14;;;;;;;5.90;3.72;;;;;;;;;;5026582;28;20037;-59
2021/06/15 08:17:39;;;;;;;7.30;3.92;;;;;;;;;;5024429;28;20037;-60
2021/06/15 08:20:05;;;;;;;5.30;3.80;;;;;;;;;;5018201;28;20490;-60
2021/06/15 08:22:31;;;;;;;6.53;4.10;;;;;;;;;;5017618;28;20128;-58
2021/06/15 08:24:56;;;;;;;7.03;4.55;;;;;;;;;;5021934;28;20534;-60
2021/06/15 08:27:22;;;;;;;9.25;5.05;;;;;;;;;;5018745;28;20521;-61
2021/06/15 08:29:48;;;;;;;10.20;4.65;;;;;;;;;;5021634;28;20032;-60
2021/06/15 08:32:13;;;;;;;10.70;4.53;;;;;;;;;;5024806;28;20521;-57
2021/06/15 08:34:38;;;;;;;9.20;4.78;;;;;;;;;;5008287;28;20057;-60
2021/06/15 08:37:04;;;;;;;8.15;4.57;;;;;;;;;;5008251;28;20054;-61
2021/06/15 08:39:29;;;;;;;8.73;5.18;;;;;;;;;;5027042;28;20021;-61
2021/06/15 08:41:54;;;;;;;12.85;5.53;;;;;;;;;;5028075;28;20021;-60
2021/06/15 08:44:20;;;;;;;12.20;5.00;;;;;;;;;;5027996;28;20029;-61
2021/06/15 08:46:45;;;;;;;10.35;4.97;;;;;;;;;;5027121;28;20060;-61
2021/06/15 08:49:10;;;;;;;9.02;4.38;;;;;;;;;;5020653;28;20033;-61
2021/06/15 08:51:36;;;;;;;12.00;5.60;;;;;;;;;;5022568;28;20084;-61
2021/06/15 08:54:04;;;;;;;13.82;5.63;;;;;;;;;;5022110;28;20044;-61
2021/06/15 08:56:32;;;;;;;12.00;5.65;;;;;;;;;;5003140;28;20114;-61
2021/06/15 08:59:06;;;;;;;17.85;5.40;;;;;;;;;;5028000;28;20064;-60
2021/06/15 09:01:31;;;;;;;12.32;5.75;;;;;;;;;;5021631;28;20033;-60
2021/06/15 09:03:56;;;;;;;10.65;5.50;;;;;;;;;;5008033;28;20042;-57
2021/06/15 09:06:22;;;;;;;9.38;5.78;;;;;;;;;;5008048;28;20030;-61
2021/06/15 09:09:05;;;;;;;15.82;6.25;;;;;;;;;;5007986;28;20474;-60
2021/06/15 09:11:50;;;;;;;9.27;6.30;;;;;;;;;;5014456;28;20029;-61
2021/06/15 09:14:15;;;;;;;8.13;5.38;;;;;;;;;;5031557;28;20425;-62
2021/06/15 09:16:47;;;;;;;12.73;5.47;;;;;;;;;;5031133;28;20087;-63
2021/06/15 09:19:17;;;;;;;10.75;5.95;;;;;;;;;;5031408;28;20028;-63
2021/06/15 09:21:43;;;;;;;8.82;5.70;;;;;;;;;;5030615;28;20056;-63
2021/06/15 09:24:20;;;;;;;11.00;5.45;;;;;;;;;;5030525;28;20059;-62
2021/06/15 09:27:06;;;;;;;10.63;6.22;;;;;;;;;;5031202;28;20032;-61
2021/06/15 09:29:37;;;;;;;8.43;5.88;;;;;;;;;;5031323;28;20916;-61
2021/06/15 09:32:03;;;;;;;8.38;5.97;;;;;;;;;;5027645;28;20048;-60
2021/06/15 09:34:28;;;;;;;9.75;5.65;;;;;;;;;;5029975;28;20029;-62
2021/06/15 09:36:54;;;;;;;9.80;5.70;;;;;;;;;;5030765;28;20025;-60
2021/06/15 09:39:19;;;;;;;8.52;5.72;;;;;;;;;;5031203;28;20021;-60
2021/06/15 09:41:47;;;;;;;11.07;6.15;;;;;;;;;;5029562;28;20039;-61
2021/06/15 09:44:19;;;;;;;10.75;5.53;;;;;;;;;;5029859;28;20041;-58
2021/06/15 09:46:45;;;;;;;7.03;5.78;;;;;;;;;;5030581;28;20037;-60
2021/06/15 09:49:12;;;;;;;6.25;5.47;;;;;;;;;;5030329;28;20032;-60
2021/06/15 09:51:41;;;;;;;7.63;6.03;;;;;;;;;;5026331;28;20026;-57
2021/06/15 09:54:06;;;;;;;8.15;5.63;;;;;;;;;;5025306;28;20056;-61
2021/06/15 09:56:32;;;;;;;8.57;5.90;;;;;;;;;;5022139;28;20613;-60
2021/06/15 09:59:00;;;;;;;11.00;6.38;;;;;;;;;;5029845;28;20057;-61
2021/06/15 10:01:30;;;;;;;7.65;5.53;;;;;;;;;;5029327;28;20075;-58
2021/06/15 10:04:15;;;;;;;7.68;5.57;;;;;;;;;;5030371;28;20033;-59
2021/06/15 10:06:46;;;;;;;7.93;5.80;;;;;;;;;;5029000;28;20057;-60
2021/06/15 10:09:11;;;;;;;9.57;5.60;;;;;;;;;;5030393;28;20049;-59
2021/06/15 10:11:37;;;;;;;7.43;5.70;;;;;;;;;;5030506;28;20653;-59
2021/06/15 10:14:03;;;;;;;8.38;5.80;;;;;;;;;;5029149;28;20053;-60
2021/06/15 10:16:28;;;;;;;7.25;5.40;;;;;;;;;;5029848;28;20559;-60
2021/06/15 10:18:54;;;;;;;7.82;5.88;;;;;;;;;;4995400;28;20030;-60
2021/06/15 10:21:19;;;;;;;9.27;6.30;;;;;;;;;;5028320;28;20104;-61
2021/06/15 10:23:45;;;;;;;9.32;5.75;;;;;;;;;;5029463;28;20092;-63
2021/06/15 10:26:10;;;;;;;7.88;5.63;;;;;;;;;;5029999;28;20108;-61
2021/06/15 10:28:36;;;;;;;9.38;6.30;;;;;;;;;;5028553;28;20095;-65
2021/06/15 10:31:02;;;;;;;7.88;6.00;;;;;;;;;;5012228;28;20067;-62
2021/06/15 10:33:27;;;;;;;8.85;6.43;;;;;;;;;;5012321;28;20075;-63
2021/06/15 10:35:54;;;;;;;9.80;6.40;;;;;;;;;;5012073;28;20222;-63
2021/06/15 10:38:43;;;;;;;8.93;5.97;;;;;;;;;;5029668;28;20166;-63
2021/06/15 10:41:19;;;;;;;7.68;5.50;;;;;;;;;;5006557;28;20435;-63
2021/06/15 10:43:44;;;;;;;8.32;5.95;;;;;;;;;;5030086;28;20497;-63
2021/06/15 10:46:12;;;;;;;9.85;6.40;;;;;;;;;;5020881;28;20031;-63
2021/06/15 10:48:57;;;;;;;7.50;6.13;;;;;;;;;;5009669;28;20221;-63
2021/06/15 10:51:34;;;;;;;8.68;6.13;;;;;;;;;;5015787;28;20046;-62
2021/06/15 10:54:02;;;;;;;7.78;5.75;;;;;;;;;;5024307;28;20049;-63
2021/06/15 10:56:32;;;;;;;7.72;5.70;;;;;;;;;;5021712;28;20037;-63
2021/06/15 10:58:59;;;;;;;6.65;6.03;;;;;;;;;;5029305;28;20096;-63
2021/06/15 11:01:31;;;;;;;9.18;6.10;;;;;;;;;;5027543;28;20060;-62
2021/06/15 11:04:01;;;;;;;8.20;5.90;;;;;;;;;;5028989;28;20045;-63
2021/06/15 11:06:26;;;;;;;8.90;6.53;;;;;;;;;;5028963;28;20545;-62
2021/06/15 11:09:16;;;;;;;7.07;5.70;;;;;;;;;;5029339;28;20025;-59
2021/06/15 11:11:47;;;;;;;8.40;6.10;;;;;;;;;;5029209;28;20480;-62
2021/06/15 11:14:17;;;;;;;7.97;6.50;;;;;;;;;;4994114;28;20445;-60
2021/06/15 11:16:46;;;;;;;10.10;6.78;;;;;;;;;;5022585;28;20038;-61
2021/06/15 11:19:12;;;;;;;7.88;6.00;;;;;;;;;;5028405;28;20036;-59
2021/06/15 11:21:44;;;;;;;7.47;5.82;;;;;;;;;;5028995;28;20025;-61
2021/06/15 11:24:21;;;;;;;7.05;6.20;;;;;;;;;;5027931;28;20065;-61
2021/06/15 11:26:54;;;;;;;6.70;6.00;;;;;;;;;;5028764;28;20505;-61
2021/06/15 11:29:26;;;;;;;8.13;6.40;;;;;;;;;;5029841;28;20525;-60
2021/06/15 11:31:52;;;;;;;8.02;6.35;;;;;;;;;;5028159;28;20136;-59
2021/06/15 11:34:18;;;;;;;9.05;6.10;;;;;;;;;;5010227;28;20124;-60
2021/06/15 11:36:48;;;;;;;6.78;6.07;;;;;;;;;;5028691;28;20021;-61
2021/06/15 11:39:29;;;;;;;7.22;6.47;;;;;;;;;;5029124;28;20053;-62
2021/06/15 11:42:06;;;;;;;6.65;6.00;;;;;;;;;;5029073;28;20033;-62
2021/06/15 11:45:05;;;;;;;6.78;6.18;;;;;;;;;;5028922;28;20029;-61
2021/06/15 11:47:41;;;;;;;7.03;6.32;;;;;;;;;;5028087;28;20033;-61
2021/06/15 11:50:10;;;;;;;8.35;6.75;;;;;;;;;;5028521;28;20482;-60
2021/06/15 11:52:37;;;;;;;7.65;6.25;;;;;;;;;;5028421;28;20486;-59
2021/06/15 11:55:04;;;;;;;7.20;6.07;;;;;;;;;;5028608;28;20025;-59
2021/06/15 11:57:30;;;;;;;6.80;6.13;;;;;;;;;;5027169;28;20473;-62
2021/06/15 11:59:55;;;;;;;8.98;6.90;;;;;;;;;;5028442;28;20104;-60
2021/06/15 12:02:21;;;;;;;7.80;6.28;;;;;;;;;;5027827;28;20390;-59
2021/06/15 12:05:09;;;;;;;8.52;6.05;;;;;;;;;;5028303;28;20159;-63
2021/06/15 12:07:38;;;;;;;6.25;5.65;;;;;;;;;;5027151;28;20116;-62
2021/06/15 12:10:12;;;;;;;7.70;6.47;;;;;;;;;;5028228;28;20029;-61
2021/06/15 12:13:08;;;;;;;6.93;6.00;;;;;;;;;;5028222;28;20032;-59
2021/06/15 12:15:40;;;;;;;8.98;6.47;;;;;;;;;;5026831;28;20037;-59
2021/06/15 12:18:26;;;;;;;8.05;6.50;;;;;;;;;;5027613;28;20030;-61
2021/06/15 12:20:58;;;;;;;8.15;6.32;;;;;;;;;;5012941;28;20080;-61
2021/06/15 12:23:28;;;;;;;8.23;6.45;;;;;;;;;;5028305;28;20030;-59
2021/06/15 12:25:54;;;;;;;6.97;6.07;;;;;;;;;;5028566;28;20378;-59
2021/06/15 12:28:22;;;;;;;7.80;5.78;;;;;;;;;;5027995;28;20114;-61
2021/06/15 12:31:07;;;;;;;11.10;6.43;;;;;;;;;;5026983;28;20462;-60
2021/06/15 12:33:33;;;;;;;13.13;6.95;;;;;;;;;;5027928;28;20482;-59
2021/06/15 12:36:04;;;;;;;10.52;6.22;;;;;;;;;;4994069;28;20063;-61
2021/06/15 12:38:29;;;;;;;8.48;6.57;;;;;;;;;;5027680;28;20090;-61
2021/06/15 12:40:55;;;;;;;10.70;6.75;;;;;;;;;;5021243;28;20029;-59
2021/06/15 12:43:27;;;;;;;8.98;5.75;;;;;;;;;;4991283;28;20121;-61
2021/06/15 12:46:12;;;;;;;10.27;5.85;;;;;;;;;;5024093;28;20449;-61
2021/06/15 12:48:58;;;;;;;8.85;5.97;;;;;;;;;;5026947;28;20043;-61
2021/06/15 12:51:28;;;;;;;10.27;6.53;;;;;;;;;;5031522;28;20087;-61
2021/06/15 12:53:54;;;;;;;11.13;6.38;;;;;;;;;;5025926;28;20317;-63
2021/06/15 12:56:27;;;;;;;9.55;5.78;;;;;;;;;;5020528;28;20052;-62
2021/06/15 12:58:54;;;;;;;8.48;6.10;;;;;;;;;;5019283;28;20029;-62
2021/06/15 13:01:39;;;;;;;10.05;6.03;;;;;;;;;;5032017;28;20033;-60
2021/06/15 13:04:16;;;;;;;6.55;5.93;;;;;;;;;;5030473;28;20120;-62
2021/06/15 13:06:41;;;;;;;7.60;5.75;;;;;;;;;;5031443;28;20021;-61
2021/06/15 13:09:14;;;;;;;9.27;5.95;;;;;;;;;;5031281;28;20033;-62
2021/06/15 13:11:39;;;;;;;9.63;6.68;;;;;;;;;;5031786;28;20032;-61
2021/06/15 13:14:04;;;;;;;7.85;6.15;;;;;;;;;;4996871;28;20041;-61
2021/06/15 13:16:48;;;;;;;7.63;5.90;;;;;;;;;;5031293;28;20111;-61
2021/06/15 13:19:13;;;;;;;7.30;6.13;;;;;;;;;;4997685;28;20108;-62
2021/06/15 13:21:54;;;;;;;7.10;5.97;;;;;;;;;;5024853;28;20125;-62
2021/06/15 13:24:20;;;;;;;;;;;;;;;;;;5018879;28;20394;-62
2021/06/15 13:26:46;;;;;;;7.45;5.97;;;;;;;;;;5024182;28;19922;-62
2021/06/15 13:29:12;;;;;;;6.45;5.57;;;;;;;;;;5020809;28;20263;-62
2021/06/15 13:31:37;;;;;;;8.85;5.80;;;;;;;;;;5024585;28;20548;-62
2021/06/15 13:34:09;;;;;;;5.45;4.93;;;;;;;;;;5014324;28;20061;-62
2021/06/15 13:36:35;;;;;;;7.18;5.13;;;;;;;;;;5017653;28;20025;-60
2021/06/15 13:39:11;;;;;;;6.00;5.40;;;;;;;;;;5024598;28;20154;-62
2021/06/15 13:41:37;;;;;;;7.40;5.65;;;;;;;;;;5018608;28;20462;-62
2021/06/15 13:44:02;;;;;;;6.15;5.30;;;;;;;;;;5023819;28;20061;-61
2021/06/15 13:46:27;;;;;;;6.00;5.22;;;;;;;;;;5022966;28;20386;-60
2021/06/15 13:48:54;;;;;;;5.50;5.00;;;;;;;;;;5023414;28;20053;-62
2021/06/15 13:51:19;;;;;;;5.75;5.18;;;;;;;;;;5028620;28;20037;-62
2021/06/15 13:53:44;;;;;;;6.55;5.53;;;;;;;;;;5021545;28;20037;-60
2021/06/15 13:56:10;;;;;;;7.90;5.75;;;;;;;;;;5025482;28;20524;-62
2021/06/15 13:58:35;;;;;;;6.43;5.28;;;;;;;;;;5023829;28;20071;-62
2021/06/15 14:01:01;;;;;;;5.68;5.07;;;;;;;;;;5024349;28;20112;-60
2021/06/15 14:03:26;;;;;;;6.80;5.35;;;;;;;;;;5019852;28;20033;-62
2021/06/15 14:05:51;;;;;;;5.82;4.80;;;;;;;;;;5024966;28;20032;-62
2021/06/15 14:08:19;;;;;;;6.00;5.40;;;;;;;;;;5018843;28;20527;-62
2021/06/15 14:10:46;;;;;;;7.50;5.40;;;;;;;;;;5021581;28;20061;-61
2021/06/15 14:13:14;;;;;;;6.38;5.50;;;;;;;;;;5021289;28;20075;-62
2021/06/15 14:15:39;;;;;;;5.63;5.00;;;;;;;;;;5021747;28;20509;-62
2021/06/15 14:18:05;;;;;;;5.50;4.97;;;;;;;;;;5021270;28;20033;-62
2021/06/15 14:20:31;;;;;;;5.88;5.28;;;;;;;;;;5003480;28;20022;-62
2021/06/15 14:22:57;;;;;;;6.45;5.25;;;;;;;;;;5021984;28;20025;-62
2021/06/15 14:25:24;;;;;;;6.80;5.68;;;;;;;;;;5020551;28;20620;-60
2021/06/15 14:27:50;;;;;;;5.80;5.00;;;;;;;;;;5021032;28;20025;-62
2021/06/15 14:30:17;;;;;;;5.82;5.22;;;;;;;;;;5021589;28;20375;-61
2021/06/15 14:32:43;;;;;;;6.35;5.28;;;;;;;;;;5022029;28;20049;-62
2021/06/15 14:35:10;;;;;;;5.50;4.90;;;;;;;;;;5000816;28;20472;-62
2021/06/15 14:37:35;;;;;;;6.15;5.55;;;;;;;;;;5019476;28;20067;-61
2021/06/15 14:40:01;;;;;;;7.03;4.97;;;;;;;;;;5020514;28;20022;-62
2021/06/15 14:42:27;;;;;;;5.97;5.10;;;;;;;;;;5020380;28;20018;-60
2021/06/15 14:44:52;;;;;;;5.50;5.00;;;;;;;;;;5001386;28;20042;-62
2021/06/15 14:47:17;;;;;;;5.85;4.82;;;;;;;;;;5021005;28;20040;-60
2021/06/15 14:49:43;;;;;;;5.53;4.55;;;;;;;;;;5018912;28;20021;-62
2021/06/15 14:52:09;;;;;;;6.68;5.10;;;;;;;;;;5021164;28;20025;-63
2021/06/15 14:54:35;;;;;;;5.43;4.93;;;;;;;;;;5021402;28;20041;-62